Terminal Aerodrome Forecast
Issued by NWS Albany, NY

Home | Current Version | Previous Version | Text Only | Print | Product List | Glossary On
Versions: 1 2 3 4 5 6 7 8 9 10 11 12 13 14 15 16 17 18 19 20 21 22 23 24 25 26 27
000
FTUS41 KALY 280553 CCA
TAFGFL
TAF COR
KGFL 280553Z 2806/2906 00000KT 2SM BR SCT009 OVC023
      TEMPO 2806/2810 1/2SM FG VV008
     FM281500 00000KT P6SM VCSH OVC050 PROB30 2820/2824 2SM -SHRA
      OVC007
     FM290200 36006KT P6SM OVC010=

USA.gov is the U.S. government's official web portal to all federal, state and local government web resources and services.